sensor_id;sensor_type;location;lat;lon;timestamp;pressure;altitude;pressure_sealevel;temperature;humidity
33161;BME280;19522;45.656;11.302;2023-06-04T00:00:23;98393.75;;;16.54;100.00
33161;BME280;19522;45.656;11.302;2023-06-04T00:02:48;98306.66;;;16.00;100.00
33161;BME280;19522;45.656;11.302;2023-06-04T00:05:14;98242.63;;;15.57;100.00
33161;BME280;19522;45.656;11.302;2023-06-04T00:07:39;98349.53;;;16.31;100.00
33161;BME280;19522;45.656;11.302;2023-06-04T00:10:05;98344.88;;;16.32;100.00
33161;BME280;19522;45.656;11.302;2023-06-04T00:12:30;98323.31;;;16.17;100.00
33161;BME280;19522;45.656;11.302;2023-06-04T00:14:56;98361.91;;;16.34;100.00
33161;BME280;19522;45.656;11.302;2023-06-04T00:17:21;98335.13;;;16.17;100.00
33161;BME280;19522;45.656;11.302;2023-06-04T00:19:47;98372.75;;;16.47;100.00
33161;BME280;19522;45.656;11.302;2023-06-04T00:22:15;98317.44;;;15.95;100.00
33161;BME280;19522;45.656;11.302;2023-06-04T00:24:40;98360.47;;;16.13;100.00
33161;BME280;19522;45.656;11.302;2023-06-04T00:27:10;98280.59;;;15.72;100.00
33161;BME280;19522;45.656;11.302;2023-06-04T00:29:36;98199.69;;;15.14;100.00
33161;BME280;19522;45.656;11.302;2023-06-04T00:32:05;98354.13;;;16.12;100.00
33161;BME280;19522;45.656;11.302;2023-06-04T00:34:30;98384.53;;;16.48;100.00
33161;BME280;19522;45.656;11.302;2023-06-04T00:36:56;98333.53;;;16.10;100.00
33161;BME280;19522;45.656;11.302;2023-06-04T00:39:21;98347.06;;;16.04;100.00
33161;BME280;19522;45.656;11.302;2023-06-04T00:41:46;98260.25;;;15.61;100.00
33161;BME280;19522;45.656;11.302;2023-06-04T00:44:12;98293.28;;;15.92;100.00
33161;BME280;19522;45.656;11.302;2023-06-04T00:46:37;98313.34;;;16.04;100.00
33161;BME280;19522;45.656;11.302;2023-06-04T00:49:05;98380.72;;;16.49;100.00
33161;BME280;19522;45.656;11.302;2023-06-04T00:51:31;98377.06;;;16.55;100.00
33161;BME280;19522;45.656;11.302;2023-06-04T00:53:58;98127.91;;;15.18;100.00
33161;BME280;19522;45.656;11.302;2023-06-04T00:56:23;98368.75;;;16.62;100.00
33161;BME280;19522;45.656;11.302;2023-06-04T00:58:49;98371.88;;;16.65;100.00
33161;BME280;19522;45.656;11.302;2023-06-04T01:01:51;98379.34;;;16.58;100.00
33161;BME280;19522;45.656;11.302;2023-06-04T01:07:07;98347.16;;;16.35;100.00
33161;BME280;19522;45.656;11.302;2023-06-04T01:09:35;98208.19;;;15.49;100.00
33161;BME280;19522;45.656;11.302;2023-06-04T01:12:08;98290.13;;;16.07;100.00
33161;BME280;19522;45.656;11.302;2023-06-04T01:14:33;98308.56;;;16.18;100.00
33161;BME280;19522;45.656;11.302;2023-06-04T01:25:26;98357.50;;;16.51;100.00
33161;BME280;19522;45.656;11.302;2023-06-04T01:27:55;98374.94;;;16.57;100.00
33161;BME280;19522;45.656;11.302;2023-06-04T01:30:29;98315.66;;;16.07;100.00
33161;BME280;19522;45.656;11.302;2023-06-04T01:32:55;98374.50;;;16.42;100.00
33161;BME280;19522;45.656;11.302;2023-06-04T01:35:21;98382.03;;;16.46;100.00
33161;BME280;19522;45.656;11.302;2023-06-04T01:37:47;98277.28;;;15.88;100.00
33161;BME280;19522;45.656;11.302;2023-06-04T01:40:12;98339.19;;;16.33;100.00
33161;BME280;19522;45.656;11.302;2023-06-04T01:42:38;98355.50;;;16.40;100.00
33161;BME280;19522;45.656;11.302;2023-06-04T01:45:04;98305.63;;;16.19;100.00
33161;BME280;19522;45.656;11.302;2023-06-04T01:47:30;98226.00;;;15.77;100.00
33161;BME280;19522;45.656;11.302;2023-06-04T01:50:02;98314.22;;;16.04;100.00
33161;BME280;19522;45.656;11.302;2023-06-04T01:52:27;98400.59;;;16.63;100.00
33161;BME280;19522;45.656;11.302;2023-06-04T01:54:53;98329.28;;;16.32;100.00
33161;BME280;19522;45.656;11.302;2023-06-04T01:57:21;98334.59;;;16.27;100.00
33161;BME280;19522;45.656;11.302;2023-06-04T01:59:46;98402.13;;;16.59;100.00
33161;BME280;19522;45.656;11.302;2023-06-04T02:02:12;98296.78;;;15.99;100.00
33161;BME280;19522;45.656;11.302;2023-06-04T02:04:38;98390.25;;;16.65;100.00
33161;BME280;19522;45.656;11.302;2023-06-04T02:07:08;98401.13;;;16.72;100.00
33161;BME280;19522;45.656;11.302;2023-06-04T02:09:34;98395.16;;;16.75;100.00
33161;BME280;19522;45.656;11.302;2023-06-04T02:12:00;98348.53;;;16.44;100.00
33161;BME280;19522;45.656;11.302;2023-06-04T02:14:26;98359.84;;;16.66;100.00
33161;BME280;19522;45.656;11.302;2023-06-04T02:16:51;98395.66;;;16.72;100.00
33161;BME280;19522;45.656;11.302;2023-06-04T02:19:19;98359.47;;;16.63;100.00
33161;BME280;19522;45.656;11.302;2023-06-04T02:21:45;98399.81;;;16.93;100.00
33161;BME280;19522;45.656;11.302;2023-06-04T02:24:11;98399.16;;;16.97;100.00
33161;BME280;19522;45.656;11.302;2023-06-04T02:26:36;98338.50;;;16.38;100.00
33161;BME280;19522;45.656;11.302;2023-06-04T02:29:02;98290.78;;;15.83;100.00
33161;BME280;19522;45.656;11.302;2023-06-04T02:31:27;98274.94;;;15.67;100.00
33161;BME280;19522;45.656;11.302;2023-06-04T02:33:56;98359.47;;;16.26;100.00
33161;BME280;19522;45.656;11.302;2023-06-04T02:36:21;98388.03;;;16.36;100.00
33161;BME280;19522;45.656;11.302;2023-06-04T02:38:47;98392.31;;;16.51;100.00
33161;BME280;19522;45.656;11.302;2023-06-04T02:41:12;98320.38;;;16.18;100.00
33161;BME280;19522;45.656;11.302;2023-06-04T02:43:37;98311.00;;;16.26;100.00
33161;BME280;19522;45.656;11.302;2023-06-04T02:46:03;98331.84;;;16.46;100.00
33161;BME280;19522;45.656;11.302;2023-06-04T02:48:28;98286.13;;;16.09;100.00
33161;BME280;19522;45.656;11.302;2023-06-04T02:50:53;98351.19;;;16.51;100.00
33161;BME280;19522;45.656;11.302;2023-06-04T02:53:19;98403.00;;;16.90;100.00
33161;BME280;19522;45.656;11.302;2023-06-04T02:55:46;98398.81;;;16.87;100.00
33161;BME280;19522;45.656;11.302;2023-06-04T02:58:11;98327.53;;;16.38;100.00
33161;BME280;19522;45.656;11.302;2023-06-04T03:00:36;98165.59;;;15.35;100.00
33161;BME280;19522;45.656;11.302;2023-06-04T03:03:02;98333.88;;;16.50;100.00
33161;BME280;19522;45.656;11.302;2023-06-04T03:05:27;98407.41;;;16.91;100.00
33161;BME280;19522;45.656;11.302;2023-06-04T03:07:55;98351.88;;;16.46;100.00
33161;BME280;19522;45.656;11.302;2023-06-04T03:10:22;98403.41;;;16.75;100.00
33161;BME280;19522;45.656;11.302;2023-06-04T03:12:48;98407.28;;;16.86;100.00
33161;BME280;19522;45.656;11.302;2023-06-04T03:15:13;98386.25;;;16.79;100.00
33161;BME280;19522;45.656;11.302;2023-06-04T03:17:39;98391.84;;;16.73;100.00
33161;BME280;19522;45.656;11.302;2023-06-04T03:20:06;98314.91;;;16.18;100.00
33161;BME280;19522;45.656;11.302;2023-06-04T03:22:32;98315.03;;;16.24;100.00
33161;BME280;19522;45.656;11.302;2023-06-04T03:24:59;98376.28;;;16.66;100.00
33161;BME280;19522;45.656;11.302;2023-06-04T03:27:24;98392.34;;;16.81;100.00
33161;BME280;19522;45.656;11.302;2023-06-04T03:29:50;98417.28;;;16.98;100.00
33161;BME280;19522;45.656;11.302;2023-06-04T03:32:15;98303.31;;;15.98;100.00
33161;BME280;19522;45.656;11.302;2023-06-04T03:34:41;98399.91;;;16.67;100.00
33161;BME280;19522;45.656;11.302;2023-06-04T03:37:06;98375.56;;;16.41;100.00
33161;BME280;19522;45.656;11.302;2023-06-04T03:39:32;98320.38;;;16.18;100.00
33161;BME280;19522;45.656;11.302;2023-06-04T03:41:57;98371.97;;;16.59;100.00
33161;BME280;19522;45.656;11.302;2023-06-04T03:44:23;98386.28;;;16.61;100.00
33161;BME280;19522;45.656;11.302;2023-06-04T03:46:48;98428.16;;;16.87;100.00
33161;BME280;19522;45.656;11.302;2023-06-04T03:49:13;98425.56;;;16.73;100.00
33161;BME280;19522;45.656;11.302;2023-06-04T03:51:42;98310.38;;;15.87;100.00
33161;BME280;19522;45.656;11.302;2023-06-04T03:54:08;98337.25;;;16.15;100.00
33161;BME280;19522;45.656;11.302;2023-06-04T03:56:33;98362.53;;;16.36;100.00
33161;BME280;19522;45.656;11.302;2023-06-04T03:59:02;98364.81;;;16.39;100.00
33161;BME280;19522;45.656;11.302;2023-06-04T04:01:27;98320.50;;;16.05;100.00
33161;BME280;19522;45.656;11.302;2023-06-04T04:03:53;98358.13;;;16.35;100.00
33161;BME280;19522;45.656;11.302;2023-06-04T04:06:19;98298.97;;;16.09;100.00
33161;BME280;19522;45.656;11.302;2023-06-04T04:08:45;98429.38;;;16.72;100.00
33161;BME280;19522;45.656;11.302;2023-06-04T04:13:36;98372.88;;;16.34;100.00
33161;BME280;19522;45.656;11.302;2023-06-04T04:16:02;98388.41;;;16.40;100.00
33161;BME280;19522;45.656;11.302;2023-06-04T04:18:27;98174.53;;;15.05;100.00
33161;BME280;19522;45.656;11.302;2023-06-04T04:20:52;98272.19;;;15.48;100.00
33161;BME280;19522;45.656;11.302;2023-06-04T04:23:18;98413.91;;;16.41;100.00
33161;BME280;19522;45.656;11.302;2023-06-04T04:25:43;98292.53;;;15.78;100.00
33161;BME280;19522;45.656;11.302;2023-06-04T04:28:09;98414.84;;;16.53;100.00
33161;BME280;19522;45.656;11.302;2023-06-04T04:30:34;98389.88;;;16.43;100.00
33161;BME280;19522;45.656;11.302;2023-06-04T04:33:03;98413.78;;;16.54;100.00
33161;BME280;19522;45.656;11.302;2023-06-04T04:35:31;98415.75;;;16.65;100.00
33161;BME280;19522;45.656;11.302;2023-06-04T04:38:01;98412.84;;;16.79;100.00
33161;BME280;19522;45.656;11.302;2023-06-04T04:40:30;98411.16;;;16.78;100.00
33161;BME280;19522;45.656;11.302;2023-06-04T04:42:58;98355.28;;;16.60;100.00
33161;BME280;19522;45.656;11.302;2023-06-04T04:45:23;98405.16;;;16.88;100.00
33161;BME280;19522;45.656;11.302;2023-06-04T04:47:48;98373.22;;;16.75;100.00
33161;BME280;19522;45.656;11.302;2023-06-04T04:50:16;98380.47;;;16.88;100.00
33161;BME280;19522;45.656;11.302;2023-06-04T04:52:41;98390.91;;;16.97;100.00
33161;BME280;19522;45.656;11.302;2023-06-04T04:55:07;98379.88;;;16.86;100.00
33161;BME280;19522;45.656;11.302;2023-06-04T04:57:33;98304.75;;;16.38;100.00
33161;BME280;19522;45.656;11.302;2023-06-04T04:59:58;98338.09;;;16.53;100.00
33161;BME280;19522;45.656;11.302;2023-06-04T05:02:23;98354.75;;;16.51;100.00
33161;BME280;19522;45.656;11.302;2023-06-04T05:04:49;98328.09;;;16.40;100.00
33161;BME280;19522;45.656;11.302;2023-06-04T05:07:14;98395.84;;;16.89;100.00
33161;BME280;19522;45.656;11.302;2023-06-04T05:09:40;98374.69;;;16.77;100.00
33161;BME280;19522;45.656;11.302;2023-06-04T05:12:06;98334.50;;;16.52;100.00
33161;BME280;19522;45.656;11.302;2023-06-04T05:14:32;98411.13;;;17.15;100.00
33161;BME280;19522;45.656;11.302;2023-06-04T05:16:57;98382.88;;;17.15;100.00
33161;BME280;19522;45.656;11.302;2023-06-04T05:19:23;98411.59;;;17.31;100.00
33161;BME280;19522;45.656;11.302;2023-06-04T05:21:49;98348.53;;;16.93;100.00
33161;BME280;19522;45.656;11.302;2023-06-04T05:24:14;98309.47;;;16.79;100.00
33161;BME280;19522;45.656;11.302;2023-06-04T05:26:40;98397.44;;;17.46;100.00
33161;BME280;19522;45.656;11.302;2023-06-04T05:29:06;98407.38;;;17.58;100.00
33161;BME280;19522;45.656;11.302;2023-06-04T05:31:33;98402.78;;;17.52;100.00
33161;BME280;19522;45.656;11.302;2023-06-04T05:33:59;98388.28;;;17.21;100.00
33161;BME280;19522;45.656;11.302;2023-06-04T05:36:27;98375.13;;;17.23;100.00
33161;BME280;19522;45.656;11.302;2023-06-04T05:38:52;98353.06;;;17.18;100.00
33161;BME280;19522;45.656;11.302;2023-06-04T05:41:23;98323.13;;;17.17;100.00
33161;BME280;19522;45.656;11.302;2023-06-04T05:43:49;98289.44;;;16.97;100.00
33161;BME280;19522;45.656;11.302;2023-06-04T05:46:14;98395.78;;;17.68;100.00
33161;BME280;19522;45.656;11.302;2023-06-04T05:48:40;98406.16;;;17.66;100.00
33161;BME280;19522;45.656;11.302;2023-06-04T05:51:05;98392.94;;;17.63;100.00
33161;BME280;19522;45.656;11.302;2023-06-04T05:53:31;98374.16;;;17.60;100.00
33161;BME280;19522;45.656;11.302;2023-06-04T05:55:56;98382.41;;;17.72;100.00
33161;BME280;19522;45.656;11.302;2023-06-04T05:58:21;98372.91;;;17.74;100.00
33161;BME280;19522;45.656;11.302;2023-06-04T06:00:47;98404.81;;;17.99;100.00
33161;BME280;19522;45.656;11.302;2023-06-04T06:03:14;98398.56;;;17.92;100.00
33161;BME280;19522;45.656;11.302;2023-06-04T06:05:42;98404.22;;;17.97;100.00
33161;BME280;19522;45.656;11.302;2023-06-04T06:08:07;98397.28;;;18.06;100.00
33161;BME280;19522;45.656;11.302;2023-06-04T06:10:33;98326.31;;;17.68;100.00
33161;BME280;19522;45.656;11.302;2023-06-04T06:12:58;98415.81;;;18.23;100.00
33161;BME280;19522;45.656;11.302;2023-06-04T06:15:26;98418.69;;;18.28;100.00
33161;BME280;19522;45.656;11.302;2023-06-04T06:17:51;98384.63;;;18.05;100.00
33161;BME280;19522;45.656;11.302;2023-06-04T06:20:18;98404.34;;;18.26;100.00
33161;BME280;19522;45.656;11.302;2023-06-04T06:22:44;98386.53;;;18.17;100.00
33161;BME280;19522;45.656;11.302;2023-06-04T06:25:09;98421.31;;;18.47;100.00
33161;BME280;19522;45.656;11.302;2023-06-04T06:27:38;98417.34;;;18.43;100.00
33161;BME280;19522;45.656;11.302;2023-06-04T06:30:06;98434.44;;;18.57;100.00
33161;BME280;19522;45.656;11.302;2023-06-04T06:32:32;98307.69;;;17.94;100.00
33161;BME280;19522;45.656;11.302;2023-06-04T06:34:57;98412.78;;;18.72;100.00
33161;BME280;19522;45.656;11.302;2023-06-04T06:37:23;98433.69;;;18.85;100.00
33161;BME280;19522;45.656;11.302;2023-06-04T06:39:48;98437.25;;;18.85;100.00
33161;BME280;19522;45.656;11.302;2023-06-04T06:42:13;98381.59;;;18.43;100.00
33161;BME280;19522;45.656;11.302;2023-06-04T06:44:39;98379.00;;;18.48;100.00
33161;BME280;19522;45.656;11.302;2023-06-04T06:47:04;98393.41;;;18.67;100.00
33161;BME280;19522;45.656;11.302;2023-06-04T06:49:30;98354.50;;;18.46;100.00
33161;BME280;19522;45.656;11.302;2023-06-04T06:51:55;98357.22;;;18.58;100.00
33161;BME280;19522;45.656;11.302;2023-06-04T06:54:24;98328.22;;;18.38;100.00
33161;BME280;19522;45.656;11.302;2023-06-04T06:56:49;98445.81;;;19.13;100.00
33161;BME280;19522;45.656;11.302;2023-06-04T06:59:15;98323.44;;;18.34;100.00
33161;BME280;19522;45.656;11.302;2023-06-04T07:01:41;98447.13;;;19.22;100.00
33161;BME280;19522;45.656;11.302;2023-06-04T07:04:06;98334.63;;;18.56;100.00
33161;BME280;19522;45.656;11.302;2023-06-04T07:06:33;98393.84;;;18.99;100.00
33161;BME280;19522;45.656;11.302;2023-06-04T07:08:58;98396.19;;;19.08;100.00
33161;BME280;19522;45.656;11.302;2023-06-04T07:11:24;98460.88;;;19.51;100.00
33161;BME280;19522;45.656;11.302;2023-06-04T07:13:50;98456.16;;;19.64;100.00
33161;BME280;19522;45.656;11.302;2023-06-04T07:16:16;98446.09;;;19.57;100.00
33161;BME280;19522;45.656;11.302;2023-06-04T07:18:41;98440.72;;;19.62;100.00
33161;BME280;19522;45.656;11.302;2023-06-04T07:21:07;98451.66;;;19.74;99.49
33161;BME280;19522;45.656;11.302;2023-06-04T07:23:32;98414.06;;;19.51;99.04
33161;BME280;19522;45.656;11.302;2023-06-04T07:25:58;98347.34;;;19.15;98.16
33161;BME280;19522;45.656;11.302;2023-06-04T07:28:23;98410.09;;;19.76;97.73
33161;BME280;19522;45.656;11.302;2023-06-04T07:30:49;98450.81;;;20.03;96.93
33161;BME280;19522;45.656;11.302;2023-06-04T07:33:14;98436.94;;;19.98;98.39
33161;BME280;19522;45.656;11.302;2023-06-04T07:35:39;98435.69;;;20.05;96.89
33161;BME280;19522;45.656;11.302;2023-06-04T07:38:05;98457.75;;;20.22;94.83
33161;BME280;19522;45.656;11.302;2023-06-04T07:40:30;98375.13;;;19.76;94.38
33161;BME280;19522;45.656;11.302;2023-06-04T07:42:56;98407.47;;;19.98;95.53
33161;BME280;19522;45.656;11.302;2023-06-04T07:45:21;98429.91;;;20.24;95.34
33161;BME280;19522;45.656;11.302;2023-06-04T07:47:47;98421.22;;;20.32;94.00
33161;BME280;19522;45.656;11.302;2023-06-04T07:50:12;98454.81;;;20.68;93.04
33161;BME280;19522;45.656;11.302;2023-06-04T07:52:38;98405.72;;;20.48;92.02
33161;BME280;19522;45.656;11.302;2023-06-04T07:55:03;98449.56;;;20.84;91.90
33161;BME280;19522;45.656;11.302;2023-06-04T07:57:30;98360.81;;;20.31;91.16
33161;BME280;19522;45.656;11.302;2023-06-04T07:59:55;98362.38;;;20.27;90.98
33161;BME280;19522;45.656;11.302;2023-06-04T08:02:22;98439.84;;;20.25;87.25
33161;BME280;19522;45.656;11.302;2023-06-04T08:04:47;98383.84;;;19.85;88.38
33161;BME280;19522;45.656;11.302;2023-06-04T08:07:13;98441.19;;;20.22;90.07
33161;BME280;19522;45.656;11.302;2023-06-04T08:09:38;98376.81;;;19.95;82.07
33161;BME280;19522;45.656;11.302;2023-06-04T08:12:04;98413.47;;;20.29;86.78
33161;BME280;19522;45.656;11.302;2023-06-04T08:14:30;98407.25;;;20.39;88.11
33161;BME280;19522;45.656;11.302;2023-06-04T08:16:55;98476.75;;;20.58;86.50
33161;BME280;19522;45.656;11.302;2023-06-04T08:19:21;98423.28;;;20.42;81.11
33161;BME280;19522;45.656;11.302;2023-06-04T08:21:46;98402.88;;;20.04;84.64
33161;BME280;19522;45.656;11.302;2023-06-04T08:24:12;98397.78;;;19.96;88.16
33161;BME280;19522;45.656;11.302;2023-06-04T08:26:38;98465.66;;;20.36;91.59
33161;BME280;19522;45.656;11.302;2023-06-04T08:29:03;98459.91;;;20.37;87.72
33161;BME280;19522;45.656;11.302;2023-06-04T08:31:30;98493.06;;;20.26;90.44
33161;BME280;19522;45.656;11.302;2023-06-04T08:33:55;98382.59;;;19.64;90.35
33161;BME280;19522;45.656;11.302;2023-06-04T08:36:21;98486.63;;;20.20;91.89
33161;BME280;19522;45.656;11.302;2023-06-04T08:38:46;98387.53;;;19.45;90.89
33161;BME280;19522;45.656;11.302;2023-06-04T08:43:45;98432.53;;;19.68;90.91
33161;BME280;19522;45.656;11.302;2023-06-04T08:46:12;98351.78;;;19.16;88.22
33161;BME280;19522;45.656;11.302;2023-06-04T08:48:39;98490.50;;;20.19;91.15
33161;BME280;19522;45.656;11.302;2023-06-04T08:51:06;98489.25;;;20.10;94.49
33161;BME280;19522;45.656;11.302;2023-06-04T08:53:35;98492.94;;;19.86;85.01
33161;BME280;19522;45.656;11.302;2023-06-04T08:56:02;98373.09;;;19.09;85.63
33161;BME280;19522;45.656;11.302;2023-06-04T08:58:31;98476.56;;;19.80;87.13
33161;BME280;19522;45.656;11.302;2023-06-04T09:00:57;98413.47;;;19.49;91.67
33161;BME280;19522;45.656;11.302;2023-06-04T09:03:23;98488.41;;;20.26;93.66
33161;BME280;19522;45.656;11.302;2023-06-04T09:05:50;98505.75;;;20.27;88.73
33161;BME280;19522;45.656;11.302;2023-06-04T09:08:17;98439.19;;;20.01;90.33
33161;BME280;19522;45.656;11.302;2023-06-04T09:10:44;98462.41;;;20.22;88.70
33161;BME280;19522;45.656;11.302;2023-06-04T09:13:15;98450.81;;;20.03;80.95
33161;BME280;19522;45.656;11.302;2023-06-04T09:15:42;98460.41;;;20.17;85.72
33161;BME280;19522;45.656;11.302;2023-06-04T09:18:07;98435.53;;;20.12;85.00
33161;BME280;19522;45.656;11.302;2023-06-04T09:20:33;98477.44;;;20.48;87.56
33161;BME280;19522;45.656;11.302;2023-06-04T09:22:58;98444.38;;;20.14;87.51
33161;BME280;19522;45.656;11.302;2023-06-04T09:25:25;98484.63;;;20.32;84.18
33161;BME280;19522;45.656;11.302;2023-06-04T09:27:52;98517.28;;;20.58;81.34
33161;BME280;19522;45.656;11.302;2023-06-04T09:30:18;98510.84;;;20.52;77.66
33161;BME280;19522;45.656;11.302;2023-06-04T09:32:44;98513.72;;;20.40;76.59
33161;BME280;19522;45.656;11.302;2023-06-04T09:37:37;98491.41;;;20.24;79.78
33161;BME280;19522;45.656;11.302;2023-06-04T09:40:03;98474.75;;;20.02;83.54
33161;BME280;19522;45.656;11.302;2023-06-04T09:42:44;98501.25;;;20.20;89.19
33161;BME280;19522;45.656;11.302;2023-06-04T09:45:13;98471.78;;;20.04;91.00
33161;BME280;19522;45.656;11.302;2023-06-04T09:47:51;98534.09;;;20.39;92.39
33161;BME280;19522;45.656;11.302;2023-06-04T09:50:25;98440.53;;;19.98;91.55
33161;BME280;19522;45.656;11.302;2023-06-04T09:52:51;98471.19;;;20.19;91.18
33161;BME280;19522;45.656;11.302;2023-06-04T09:55:18;98444.53;;;20.07;91.45
33161;BME280;19522;45.656;11.302;2023-06-04T09:57:48;98527.56;;;20.62;88.93
33161;BME280;19522;45.656;11.302;2023-06-04T10:00:18;98514.84;;;20.44;89.13
33161;BME280;19522;45.656;11.302;2023-06-04T10:02:46;98524.03;;;20.67;86.43
33161;BME280;19522;45.656;11.302;2023-06-04T10:05:13;98492.47;;;20.40;86.98
33161;BME280;19522;45.656;11.302;2023-06-04T10:07:42;98528.41;;;20.46;88.91
33161;BME280;19522;45.656;11.302;2023-06-04T10:10:11;98484.97;;;20.02;92.47
33161;BME280;19522;45.656;11.302;2023-06-04T10:12:40;98519.19;;;20.06;92.98
33161;BME280;19522;45.656;11.302;2023-06-04T10:15:11;98523.56;;;20.36;91.55
33161;BME280;19522;45.656;11.302;2023-06-04T10:17:37;98521.56;;;20.48;89.37
33161;BME280;19522;45.656;11.302;2023-06-04T10:20:03;98528.31;;;20.58;88.99
33161;BME280;19522;45.656;11.302;2023-06-04T10:22:31;98503.34;;;20.47;90.67
33161;BME280;19522;45.656;11.302;2023-06-04T10:24:58;98521.81;;;20.47;89.97
33161;BME280;19522;45.656;11.302;2023-06-04T10:27:24;98522.53;;;20.59;91.08
33161;BME280;19522;45.656;11.302;2023-06-04T10:29:50;98524.13;;;20.72;91.36
33161;BME280;19522;45.656;11.302;2023-06-04T10:32:16;98451.53;;;20.15;89.39
33161;BME280;19522;45.656;11.302;2023-06-04T10:34:42;98527.41;;;20.69;89.45
33161;BME280;19522;45.656;11.302;2023-06-04T10:37:19;98524.28;;;20.82;81.78
33161;BME280;19522;45.656;11.302;2023-06-04T10:39:51;98397.03;;;20.00;79.92
33161;BME280;19522;45.656;11.302;2023-06-04T10:42:17;98467.00;;;20.33;78.14
33161;BME280;19522;45.656;11.302;2023-06-04T10:44:45;98440.19;;;20.12;80.29
33161;BME280;19522;45.656;11.302;2023-06-04T10:47:22;98481.28;;;20.47;81.59
33161;BME280;19522;45.656;11.302;2023-06-04T10:49:48;98485.38;;;20.11;81.42
33161;BME280;19522;45.656;11.302;2023-06-04T10:52:14;98473.44;;;20.22;87.13
33161;BME280;19522;45.656;11.302;2023-06-04T10:54:45;98489.81;;;20.12;74.53
33161;BME280;19522;45.656;11.302;2023-06-04T10:57:16;98418.31;;;20.05;73.56
33161;BME280;19522;45.656;11.302;2023-06-04T11:00:01;98505.22;;;20.64;73.83
33161;BME280;19522;45.656;11.302;2023-06-04T11:02:31;98443.50;;;20.48;73.58
33161;BME280;19522;45.656;11.302;2023-06-04T11:05:04;98508.47;;;20.95;71.85
33161;BME280;19522;45.656;11.302;2023-06-04T11:07:41;98406.03;;;20.52;75.25
33161;BME280;19522;45.656;11.302;2023-06-04T11:10:09;98511.19;;;21.34;74.43
33161;BME280;19522;45.656;11.302;2023-06-04T11:12:48;98460.41;;;21.13;72.74
33161;BME280;19522;45.656;11.302;2023-06-04T11:15:18;98497.81;;;21.48;68.51
33161;BME280;19522;45.656;11.302;2023-06-04T11:17:55;98493.19;;;21.54;68.71
33161;BME280;19522;45.656;11.302;2023-06-04T11:20:23;98470.16;;;21.43;69.16
33161;BME280;19522;45.656;11.302;2023-06-04T11:22:56;98460.13;;;21.37;73.09
33161;BME280;19522;45.656;11.302;2023-06-04T11:25:26;98382.41;;;20.78;68.82
33161;BME280;19522;45.656;11.302;2023-06-04T11:27:52;98502.88;;;21.56;71.75
33161;BME280;19522;45.656;11.302;2023-06-04T11:30:19;98503.31;;;21.70;68.37
33161;BME280;19522;45.656;11.302;2023-06-04T11:32:44;98509.59;;;21.60;69.21
33161;BME280;19522;45.656;11.302;2023-06-04T11:35:11;98395.78;;;20.69;67.39
33161;BME280;19522;45.656;11.302;2023-06-04T11:37:37;98511.88;;;21.46;72.75
33161;BME280;19522;45.656;11.302;2023-06-04T11:40:15;98439.69;;;21.10;69.39
33161;BME280;19522;45.656;11.302;2023-06-04T11:42:41;98477.53;;;21.37;72.04
33161;BME280;19522;45.656;11.302;2023-06-04T11:45:10;98443.94;;;21.45;70.42
33161;BME280;19522;45.656;11.302;2023-06-04T11:47:35;98436.56;;;21.56;69.64
33161;BME280;19522;45.656;11.302;2023-06-04T11:50:01;98499.75;;;21.97;66.33
33161;BME280;19522;45.656;11.302;2023-06-04T11:52:27;98473.94;;;22.19;69.41
33161;BME280;19522;45.656;11.302;2023-06-04T11:54:53;98378.09;;;21.64;65.85
33161;BME280;19522;45.656;11.302;2023-06-04T11:57:18;98438.97;;;22.02;66.54
33161;BME280;19522;45.656;11.302;2023-06-04T11:59:44;98480.00;;;22.16;65.28
33161;BME280;19522;45.656;11.302;2023-06-04T12:02:10;98476.75;;;22.24;64.64
33161;BME280;19522;45.656;11.302;2023-06-04T12:04:36;98369.56;;;21.66;67.72
33161;BME280;19522;45.656;11.302;2023-06-04T12:07:02;98486.22;;;22.66;70.00
33161;BME280;19522;45.656;11.302;2023-06-04T12:09:32;98479.44;;;22.46;67.21
33161;BME280;19522;45.656;11.302;2023-06-04T12:12:02;98344.22;;;21.74;69.77
33161;BME280;19522;45.656;11.302;2023-06-04T12:14:28;98467.94;;;22.65;65.62
33161;BME280;19522;45.656;11.302;2023-06-04T12:17:01;98448.25;;;22.61;64.53
33161;BME280;19522;45.656;11.302;2023-06-04T12:19:27;98415.19;;;22.39;66.70
33161;BME280;19522;45.656;11.302;2023-06-04T12:22:04;98467.59;;;22.56;63.88
33161;BME280;19522;45.656;11.302;2023-06-04T12:24:31;98467.59;;;22.56;64.10
33161;BME280;19522;45.656;11.302;2023-06-04T12:27:04;98434.03;;;22.42;66.61
33161;BME280;19522;45.656;11.302;2023-06-04T12:29:31;98453.84;;;22.71;61.62
33161;BME280;19522;45.656;11.302;2023-06-04T12:32:07;98283.50;;;21.90;63.85
33161;BME280;19522;45.656;11.302;2023-06-04T12:34:37;98450.25;;;23.24;62.25
33161;BME280;19522;45.656;11.302;2023-06-04T12:37:02;98441.44;;;23.38;62.43
33161;BME280;19522;45.656;11.302;2023-06-04T12:39:31;98455.88;;;23.55;62.35
33161;BME280;19522;45.656;11.302;2023-06-04T12:41:57;98463.69;;;23.79;63.27
33161;BME280;19522;45.656;11.302;2023-06-04T12:44:22;98342.25;;;23.29;60.23
33161;BME280;19522;45.656;11.302;2023-06-04T12:46:47;98359.16;;;23.48;59.48
33161;BME280;19522;45.656;11.302;2023-06-04T12:49:13;98424.06;;;24.15;58.95
33161;BME280;19522;45.656;11.302;2023-06-04T12:51:38;98378.28;;;23.91;58.74
33161;BME280;19522;45.656;11.302;2023-06-04T12:54:04;98438.44;;;24.58;56.05
33161;BME280;19522;45.656;11.302;2023-06-04T12:56:30;98438.13;;;24.85;54.26
33161;BME280;19522;45.656;11.302;2023-06-04T12:58:55;98349.66;;;24.48;53.30
33161;BME280;19522;45.656;11.302;2023-06-04T13:01:21;98239.66;;;23.91;54.91